KMER/MER METAR and TAF weather

Enter ICAO airport designator
Station Type Date Time Source
KMER METAR 2022/11/30 11:15 UTC NOAA

KMER 301115Z AUTO 11003KT 10SM CLR 01/01 A3003 RMK AO1


Station Type Date Time Source
KMER Decoded METAR 2022/11/30 11:15 UTC NOAA

Merced / Castle Air Force Base, CA, United States (KMER) 37-22N 120-34W 60M
Nov 30, 2022 - 06:15 AM EST / 2022.11.30 1115 UTC
Wind: from the ESE (110 degrees) at 3 MPH (3 KT):0
Visibility: 10 mile(s):0
Sky conditions: clear
Temperature: 33 F (1 C)
Dew Point: 33 F (1 C)
Relative Humidity: 100%
Pressure (altimeter): 30.03 in. Hg (1016 hPa)
ob: KMER 301115Z AUTO 11003KT 10SM CLR 01/01 A3003 RMK AO1
cycle: 11

Station Type Date Time Source
KMER TAF 2022/11/30 12:42 UTC NOAA

TAF KMER 301137Z 3012/0112 11003KT P6SM SKC
TEMPO 3013/3016 4SM BR
FM301700 VRB03KT P6SM SCT250
FM010600 11004KT 6SM BR BKN250
FM010800 12006KT P6SM OVC100

Example: see airport list